sensor_id;sensor_type;location;lat;lon;timestamp;temperature;humidity
12276;DHT22;6200;48.144;11.424;2022-07-23T00:01:00;23.90;97.80
12276;DHT22;6200;48.144;11.424;2022-07-23T00:03:26;23.60;97.60
12276;DHT22;6200;48.144;11.424;2022-07-23T00:05:52;23.60;97.20
12276;DHT22;6200;48.144;11.424;2022-07-23T00:08:18;23.60;98.30
12276;DHT22;6200;48.144;11.424;2022-07-23T00:10:44;23.50;99.40
12276;DHT22;6200;48.144;11.424;2022-07-23T00:13:10;24.00;98.50
12276;DHT22;6200;48.144;11.424;2022-07-23T00:15:35;25.00;99.30
12276;DHT22;6200;48.144;11.424;2022-07-23T00:18:01;23.40;99.20
12276;DHT22;6200;48.144;11.424;2022-07-23T00:20:27;23.30;99.60
12276;DHT22;6200;48.144;11.424;2022-07-23T00:22:54;23.50;99.60
12276;DHT22;6200;48.144;11.424;2022-07-23T00:25:21;23.30;99.50
12276;DHT22;6200;48.144;11.424;2022-07-23T00:27:47;23.20;99.90
12276;DHT22;6200;48.144;11.424;2022-07-23T00:30:14;23.10;99.90
12276;DHT22;6200;48.144;11.424;2022-07-23T00:33:06;23.00;99.90
12276;DHT22;6200;48.144;11.424;2022-07-23T00:35:35;23.00;99.90
12276;DHT22;6200;48.144;11.424;2022-07-23T00:38:02;23.00;99.90
12276;DHT22;6200;48.144;11.424;2022-07-23T00:40:29;23.10;99.90
12276;DHT22;6200;48.144;11.424;2022-07-23T00:42:55;23.20;99.80
12276;DHT22;6200;48.144;11.424;2022-07-23T00:45:21;23.20;99.90
12276;DHT22;6200;48.144;11.424;2022-07-23T00:47:48;23.20;99.70
12276;DHT22;6200;48.144;11.424;2022-07-23T00:50:17;23.90;99.90
12276;DHT22;6200;48.144;11.424;2022-07-23T00:52:43;23.10;99.70
12276;DHT22;6200;48.144;11.424;2022-07-23T00:55:10;23.30;99.60
12276;DHT22;6200;48.144;11.424;2022-07-23T00:57:37;23.20;99.30
12276;DHT22;6200;48.144;11.424;2022-07-23T01:00:04;23.10;99.10
12276;DHT22;6200;48.144;11.424;2022-07-23T01:02:30;23.20;99.00
12276;DHT22;6200;48.144;11.424;2022-07-23T01:04:56;23.20;99.40
12276;DHT22;6200;48.144;11.424;2022-07-23T01:07:22;23.10;99.70
12276;DHT22;6200;48.144;11.424;2022-07-23T01:09:49;23.50;99.10
12276;DHT22;6200;48.144;11.424;2022-07-23T01:12:16;23.40;99.10
12276;DHT22;6200;48.144;11.424;2022-07-23T01:14:41;24.20;99.00
12276;DHT22;6200;48.144;11.424;2022-07-23T01:17:07;23.20;98.40
12276;DHT22;6200;48.144;11.424;2022-07-23T01:19:32;23.10;98.10
12276;DHT22;6200;48.144;11.424;2022-07-23T01:22:02;23.40;99.30
12276;DHT22;6200;48.144;11.424;2022-07-23T01:24:28;22.60;97.70
12276;DHT22;6200;48.144;11.424;2022-07-23T01:26:53;23.10;98.90
12276;DHT22;6200;48.144;11.424;2022-07-23T01:29:19;22.40;99.90
12276;DHT22;6200;48.144;11.424;2022-07-23T01:31:46;21.80;99.90
12276;DHT22;6200;48.144;11.424;2022-07-23T01:34:12;20.90;99.90
12276;DHT22;6200;48.144;11.424;2022-07-23T01:36:38;20.50;99.90
12276;DHT22;6200;48.144;11.424;2022-07-23T01:39:06;21.40;99.90
12276;DHT22;6200;48.144;11.424;2022-07-23T01:41:31;21.30;99.90
12276;DHT22;6200;48.144;11.424;2022-07-23T01:43:57;21.90;99.90
12276;DHT22;6200;48.144;11.424;2022-07-23T01:46:23;19.80;99.90
12276;DHT22;6200;48.144;11.424;2022-07-23T01:48:48;19.60;99.90
12276;DHT22;6200;48.144;11.424;2022-07-23T01:51:14;19.90;99.90
12276;DHT22;6200;48.144;11.424;2022-07-23T01:53:40;19.60;99.90
12276;DHT22;6200;48.144;11.424;2022-07-23T01:56:06;20.60;99.90
12276;DHT22;6200;48.144;11.424;2022-07-23T01:58:32;19.60;99.90
12276;DHT22;6200;48.144;11.424;2022-07-23T02:00:58;19.80;99.90
12276;DHT22;6200;48.144;11.424;2022-07-23T02:03:25;20.90;99.90
12276;DHT22;6200;48.144;11.424;2022-07-23T02:05:50;19.90;99.90
12276;DHT22;6200;48.144;11.424;2022-07-23T02:08:16;19.50;99.90
12276;DHT22;6200;48.144;11.424;2022-07-23T02:10:42;21.40;99.90
12276;DHT22;6200;48.144;11.424;2022-07-23T02:13:07;19.60;99.90
12276;DHT22;6200;48.144;11.424;2022-07-23T02:15:34;19.60;99.90
12276;DHT22;6200;48.144;11.424;2022-07-23T02:17:59;20.30;99.90
12276;DHT22;6200;48.144;11.424;2022-07-23T02:20:25;20.60;99.90
12276;DHT22;6200;48.144;11.424;2022-07-23T02:22:51;19.70;99.90
12276;DHT22;6200;48.144;11.424;2022-07-23T02:25:17;19.90;99.90
12276;DHT22;6200;48.144;11.424;2022-07-23T02:27:42;20.70;99.90
12276;DHT22;6200;48.144;11.424;2022-07-23T02:30:08;19.70;99.90
12276;DHT22;6200;48.144;11.424;2022-07-23T02:32:35;19.70;99.90
12276;DHT22;6200;48.144;11.424;2022-07-23T02:35:00;19.70;99.90
12276;DHT22;6200;48.144;11.424;2022-07-23T02:37:27;19.50;99.90
12276;DHT22;6200;48.144;11.424;2022-07-23T02:39:52;20.50;99.90
12276;DHT22;6200;48.144;11.424;2022-07-23T02:42:18;19.50;99.90
12276;DHT22;6200;48.144;11.424;2022-07-23T02:44:44;19.70;99.90
12276;DHT22;6200;48.144;11.424;2022-07-23T02:47:09;19.50;99.90
12276;DHT22;6200;48.144;11.424;2022-07-23T02:49:35;19.70;99.90
12276;DHT22;6200;48.144;11.424;2022-07-23T02:52:01;19.60;99.90
12276;DHT22;6200;48.144;11.424;2022-07-23T02:54:26;21.30;99.90
12276;DHT22;6200;48.144;11.424;2022-07-23T02:56:52;19.40;99.90
12276;DHT22;6200;48.144;11.424;2022-07-23T02:59:18;19.50;99.90
12276;DHT22;6200;48.144;11.424;2022-07-23T03:01:44;19.90;99.90
12276;DHT22;6200;48.144;11.424;2022-07-23T03:04:10;19.40;99.90
12276;DHT22;6200;48.144;11.424;2022-07-23T03:06:35;19.40;99.90
12276;DHT22;6200;48.144;11.424;2022-07-23T03:09:01;19.30;99.90
12276;DHT22;6200;48.144;11.424;2022-07-23T03:11:27;19.70;99.90
12276;DHT22;6200;48.144;11.424;2022-07-23T03:13:53;20.60;99.90
12276;DHT22;6200;48.144;11.424;2022-07-23T03:16:18;19.80;99.90
12276;DHT22;6200;48.144;11.424;2022-07-23T03:18:44;20.60;99.90
12276;DHT22;6200;48.144;11.424;2022-07-23T03:21:09;19.30;99.90
12276;DHT22;6200;48.144;11.424;2022-07-23T03:23:35;19.40;99.90
12276;DHT22;6200;48.144;11.424;2022-07-23T03:26:00;20.20;99.90
12276;DHT22;6200;48.144;11.424;2022-07-23T03:28:26;19.60;99.90
12276;DHT22;6200;48.144;11.424;2022-07-23T03:30:52;19.30;99.90
12276;DHT22;6200;48.144;11.424;2022-07-23T03:33:19;19.20;99.90
12276;DHT22;6200;48.144;11.424;2022-07-23T03:35:45;19.10;99.90
12276;DHT22;6200;48.144;11.424;2022-07-23T03:38:11;18.90;99.90
12276;DHT22;6200;48.144;11.424;2022-07-23T03:40:36;19.80;99.90
12276;DHT22;6200;48.144;11.424;2022-07-23T03:43:02;18.90;99.90
12276;DHT22;6200;48.144;11.424;2022-07-23T03:45:28;19.20;99.90
12276;DHT22;6200;48.144;11.424;2022-07-23T03:47:53;20.00;99.90
12276;DHT22;6200;48.144;11.424;2022-07-23T03:50:20;19.70;99.90
12276;DHT22;6200;48.144;11.424;2022-07-23T03:52:46;18.90;99.90
12276;DHT22;6200;48.144;11.424;2022-07-23T03:55:12;19.30;99.90
12276;DHT22;6200;48.144;11.424;2022-07-23T03:57:37;19.20;99.90
12276;DHT22;6200;48.144;11.424;2022-07-23T04:00:05;21.10;99.90
12276;DHT22;6200;48.144;11.424;2022-07-23T04:02:32;19.00;99.90
12276;DHT22;6200;48.144;11.424;2022-07-23T04:04:57;19.00;99.90
12276;DHT22;6200;48.144;11.424;2022-07-23T04:07:24;19.80;99.90
12276;DHT22;6200;48.144;11.424;2022-07-23T04:09:50;19.30;99.90
12276;DHT22;6200;48.144;11.424;2022-07-23T04:12:15;19.00;99.90
12276;DHT22;6200;48.144;11.424;2022-07-23T04:14:41;19.60;99.90
12276;DHT22;6200;48.144;11.424;2022-07-23T04:17:06;19.30;99.90
12276;DHT22;6200;48.144;11.424;2022-07-23T04:19:32;20.10;99.90
12276;DHT22;6200;48.144;11.424;2022-07-23T04:21:58;19.00;99.90
12276;DHT22;6200;48.144;11.424;2022-07-23T04:24:23;19.60;99.90
12276;DHT22;6200;48.144;11.424;2022-07-23T04:26:49;19.00;99.90
12276;DHT22;6200;48.144;11.424;2022-07-23T04:29:14;19.10;99.90
12276;DHT22;6200;48.144;11.424;2022-07-23T04:31:40;20.50;99.90
12276;DHT22;6200;48.144;11.424;2022-07-23T04:34:05;19.10;99.90
12276;DHT22;6200;48.144;11.424;2022-07-23T04:36:31;19.70;99.90
12276;DHT22;6200;48.144;11.424;2022-07-23T04:38:56;19.60;99.90
12276;DHT22;6200;48.144;11.424;2022-07-23T04:41:22;19.10;99.90
12276;DHT22;6200;48.144;11.424;2022-07-23T04:43:47;20.20;99.90
12276;DHT22;6200;48.144;11.424;2022-07-23T04:46:13;19.10;99.90
12276;DHT22;6200;48.144;11.424;2022-07-23T04:48:39;19.10;99.90
12276;DHT22;6200;48.144;11.424;2022-07-23T04:51:05;19.10;99.90
12276;DHT22;6200;48.144;11.424;2022-07-23T04:53:31;19.50;99.90
12276;DHT22;6200;48.144;11.424;2022-07-23T04:55:57;20.40;99.90
12276;DHT22;6200;48.144;11.424;2022-07-23T04:58:22;19.30;99.90
12276;DHT22;6200;48.144;11.424;2022-07-23T05:00:48;20.50;99.90
12276;DHT22;6200;48.144;11.424;2022-07-23T05:03:14;19.30;99.90
12276;DHT22;6200;48.144;11.424;2022-07-23T05:05:39;19.30;99.90
12276;DHT22;6200;48.144;11.424;2022-07-23T05:08:05;19.20;99.90
12276;DHT22;6200;48.144;11.424;2022-07-23T05:10:31;20.70;99.90
12276;DHT22;6200;48.144;11.424;2022-07-23T05:12:56;19.20;99.90
12276;DHT22;6200;48.144;11.424;2022-07-23T05:15:22;19.10;99.90
12276;DHT22;6200;48.144;11.424;2022-07-23T05:17:48;19.80;99.90
12276;DHT22;6200;48.144;11.424;2022-07-23T05:20:14;19.10;99.90
12276;DHT22;6200;48.144;11.424;2022-07-23T05:22:40;19.10;99.90
12276;DHT22;6200;48.144;11.424;2022-07-23T05:25:06;19.70;99.90
12276;DHT22;6200;48.144;11.424;2022-07-23T05:27:32;19.20;99.90
12276;DHT22;6200;48.144;11.424;2022-07-23T05:29:58;19.20;99.90
12276;DHT22;6200;48.144;11.424;2022-07-23T05:32:24;19.20;99.90
12276;DHT22;6200;48.144;11.424;2022-07-23T05:34:49;19.30;99.90
12276;DHT22;6200;48.144;11.424;2022-07-23T05:37:15;20.20;99.90
12276;DHT22;6200;48.144;11.424;2022-07-23T05:39:41;19.10;99.90
12276;DHT22;6200;48.144;11.424;2022-07-23T05:42:06;20.30;99.90
12276;DHT22;6200;48.144;11.424;2022-07-23T05:44:33;19.10;99.90
12276;DHT22;6200;48.144;11.424;2022-07-23T05:46:58;19.50;99.90
12276;DHT22;6200;48.144;11.424;2022-07-23T05:49:24;19.10;99.90
12276;DHT22;6200;48.144;11.424;2022-07-23T05:51:49;19.10;99.90
12276;DHT22;6200;48.144;11.424;2022-07-23T05:54:15;19.10;99.90
12276;DHT22;6200;48.144;11.424;2022-07-23T05:56:40;19.40;99.90
12276;DHT22;6200;48.144;11.424;2022-07-23T05:59:06;19.20;99.90
12276;DHT22;6200;48.144;11.424;2022-07-23T06:01:31;20.30;99.90
12276;DHT22;6200;48.144;11.424;2022-07-23T06:03:57;19.20;99.90
12276;DHT22;6200;48.144;11.424;2022-07-23T06:06:22;20.40;99.90
12276;DHT22;6200;48.144;11.424;2022-07-23T06:08:48;20.30;99.90
12276;DHT22;6200;48.144;11.424;2022-07-23T06:11:13;19.60;99.90
12276;DHT22;6200;48.144;11.424;2022-07-23T06:13:39;20.00;99.90
12276;DHT22;6200;48.144;11.424;2022-07-23T06:16:04;19.40;99.90
12276;DHT22;6200;48.144;11.424;2022-07-23T06:18:30;19.20;99.90
12276;DHT22;6200;48.144;11.424;2022-07-23T06:20:55;20.60;99.90
12276;DHT22;6200;48.144;11.424;2022-07-23T06:23:21;19.30;99.90
12276;DHT22;6200;48.144;11.424;2022-07-23T06:25:46;21.80;99.90
12276;DHT22;6200;48.144;11.424;2022-07-23T06:28:12;19.70;99.90
12276;DHT22;6200;48.144;11.424;2022-07-23T06:30:38;20.10;99.90
12276;DHT22;6200;48.144;11.424;2022-07-23T06:33:03;20.50;99.90
12276;DHT22;6200;48.144;11.424;2022-07-23T06:35:29;20.00;99.90
12276;DHT22;6200;48.144;11.424;2022-07-23T06:37:54;21.40;99.90
12276;DHT22;6200;48.144;11.424;2022-07-23T06:40:20;19.70;99.90
12276;DHT22;6200;48.144;11.424;2022-07-23T06:42:46;19.60;99.90
12276;DHT22;6200;48.144;11.424;2022-07-23T06:45:11;19.60;99.90
12276;DHT22;6200;48.144;11.424;2022-07-23T06:47:37;19.70;99.90
12276;DHT22;6200;48.144;11.424;2022-07-23T06:50:04;19.50;99.90
12276;DHT22;6200;48.144;11.424;2022-07-23T06:52:29;19.50;99.90
12276;DHT22;6200;48.144;11.424;2022-07-23T06:54:55;19.50;99.90
12276;DHT22;6200;48.144;11.424;2022-07-23T06:57:20;19.60;99.90
12276;DHT22;6200;48.144;11.424;2022-07-23T06:59:46;19.60;99.90
12276;DHT22;6200;48.144;11.424;2022-07-23T07:02:12;20.20;99.90
12276;DHT22;6200;48.144;11.424;2022-07-23T07:04:37;20.00;99.90
12276;DHT22;6200;48.144;11.424;2022-07-23T07:07:03;19.70;99.90
12276;DHT22;6200;48.144;11.424;2022-07-23T07:09:29;19.70;99.90
12276;DHT22;6200;48.144;11.424;2022-07-23T07:11:54;19.70;99.90
12276;DHT22;6200;48.144;11.424;2022-07-23T07:14:20;19.70;99.90
12276;DHT22;6200;48.144;11.424;2022-07-23T07:16:46;19.60;99.90
12276;DHT22;6200;48.144;11.424;2022-07-23T07:19:11;19.60;99.90
12276;DHT22;6200;48.144;11.424;2022-07-23T07:21:37;20.90;99.90
12276;DHT22;6200;48.144;11.424;2022-07-23T07:24:02;19.60;99.90
12276;DHT22;6200;48.144;11.424;2022-07-23T07:26:28;19.70;99.90
12276;DHT22;6200;48.144;11.424;2022-07-23T07:28:54;19.70;99.90
12276;DHT22;6200;48.144;11.424;2022-07-23T07:31:20;19.80;99.90
12276;DHT22;6200;48.144;11.424;2022-07-23T07:33:45;20.40;99.90
12276;DHT22;6200;48.144;11.424;2022-07-23T07:36:11;19.90;99.90
12276;DHT22;6200;48.144;11.424;2022-07-23T07:38:37;19.90;99.90
12276;DHT22;6200;48.144;11.424;2022-07-23T07:41:02;20.60;99.90
12276;DHT22;6200;48.144;11.424;2022-07-23T07:43:28;20.10;99.90
12276;DHT22;6200;48.144;11.424;2022-07-23T07:45:53;20.00;99.90
12276;DHT22;6200;48.144;11.424;2022-07-23T07:48:19;20.10;99.90
12276;DHT22;6200;48.144;11.424;2022-07-23T07:50:44;20.10;99.90
12276;DHT22;6200;48.144;11.424;2022-07-23T07:53:10;20.20;99.90
12276;DHT22;6200;48.144;11.424;2022-07-23T07:55:35;20.30;99.90
12276;DHT22;6200;48.144;11.424;2022-07-23T07:58:01;20.10;99.90
12276;DHT22;6200;48.144;11.424;2022-07-23T08:00:27;20.20;99.90
12276;DHT22;6200;48.144;11.424;2022-07-23T08:02:55;20.20;99.90
12276;DHT22;6200;48.144;11.424;2022-07-23T08:05:21;20.90;99.90
12276;DHT22;6200;48.144;11.424;2022-07-23T08:07:47;20.30;99.90
12276;DHT22;6200;48.144;11.424;2022-07-23T08:10:14;20.40;99.90
12276;DHT22;6200;48.144;11.424;2022-07-23T08:12:49;20.90;99.90
12276;DHT22;6200;48.144;11.424;2022-07-23T08:15:19;20.60;99.90
12276;DHT22;6200;48.144;11.424;2022-07-23T08:17:46;20.90;99.90
12276;DHT22;6200;48.144;11.424;2022-07-23T08:20:14;20.60;99.90
12276;DHT22;6200;48.144;11.424;2022-07-23T08:22:48;21.20;99.90
12276;DHT22;6200;48.144;11.424;2022-07-23T08:25:15;20.80;99.90
12276;DHT22;6200;48.144;11.424;2022-07-23T08:27:41;21.00;99.90
12276;DHT22;6200;48.144;11.424;2022-07-23T08:30:07;21.10;99.90
12276;DHT22;6200;48.144;11.424;2022-07-23T08:32:33;21.30;99.90
12276;DHT22;6200;48.144;11.424;2022-07-23T08:34:58;21.50;99.90
12276;DHT22;6200;48.144;11.424;2022-07-23T08:37:24;21.70;99.90
12276;DHT22;6200;48.144;11.424;2022-07-23T08:39:49;21.80;99.90
12276;DHT22;6200;48.144;11.424;2022-07-23T08:42:15;21.90;99.90
12276;DHT22;6200;48.144;11.424;2022-07-23T08:44:44;22.20;99.90
12276;DHT22;6200;48.144;11.424;2022-07-23T08:47:12;22.20;99.90
12276;DHT22;6200;48.144;11.424;2022-07-23T08:49:38;22.40;99.90
12276;DHT22;6200;48.144;11.424;2022-07-23T08:52:04;22.70;99.90
12276;DHT22;6200;48.144;11.424;2022-07-23T08:54:31;22.70;99.90
12276;DHT22;6200;48.144;11.424;2022-07-23T08:56:57;23.60;99.90
12276;DHT22;6200;48.144;11.424;2022-07-23T08:59:22;23.30;99.90
12276;DHT22;6200;48.144;11.424;2022-07-23T09:01:48;22.90;99.90
12276;DHT22;6200;48.144;11.424;2022-07-23T09:04:13;22.90;99.90
12276;DHT22;6200;48.144;11.424;2022-07-23T09:06:39;23.70;99.90
12276;DHT22;6200;48.144;11.424;2022-07-23T09:09:20;23.00;99.90
12276;DHT22;6200;48.144;11.424;2022-07-23T09:11:48;23.00;99.90
12276;DHT22;6200;48.144;11.424;2022-07-23T09:14:13;23.20;99.90
12276;DHT22;6200;48.144;11.424;2022-07-23T09:16:39;23.50;99.90
12276;DHT22;6200;48.144;11.424;2022-07-23T09:19:06;23.40;99.90
12276;DHT22;6200;48.144;11.424;2022-07-23T09:21:34;23.80;99.90
12276;DHT22;6200;48.144;11.424;2022-07-23T09:24:11;25.50;99.90
12276;DHT22;6200;48.144;11.424;2022-07-23T09:26:39;26.70;99.90
12276;DHT22;6200;48.144;11.424;2022-07-23T09:29:12;27.10;99.90
12276;DHT22;6200;48.144;11.424;2022-07-23T09:31:58;27.60;99.90
12276;DHT22;6200;48.144;11.424;2022-07-23T09:34:28;28.60;99.90
12276;DHT22;6200;48.144;11.424;2022-07-23T09:37:18;30.70;95.10
12276;DHT22;6200;48.144;11.424;2022-07-23T09:39:46;32.60;91.80
12276;DHT22;6200;48.144;11.424;2022-07-23T09:42:20;33.60;84.50
12276;DHT22;6200;48.144;11.424;2022-07-23T09:44:51;34.30;78.00
12276;DHT22;6200;48.144;11.424;2022-07-23T09:47:18;33.90;74.60
12276;DHT22;6200;48.144;11.424;2022-07-23T09:50:03;34.30;71.10
12276;DHT22;6200;48.144;11.424;2022-07-23T09:52:36;33.20;69.80
12276;DHT22;6200;48.144;11.424;2022-07-23T09:55:06;31.90;69.80
12276;DHT22;6200;48.144;11.424;2022-07-23T09:57:33;31.00;74.50
12276;DHT22;6200;48.144;11.424;2022-07-23T10:00:02;30.00;78.70
12276;DHT22;6200;48.144;11.424;2022-07-23T10:02:32;29.40;85.40
12276;DHT22;6200;48.144;11.424;2022-07-23T10:04:58;29.60;85.00
12276;DHT22;6200;48.144;11.424;2022-07-23T10:07:26;28.40;85.60
12276;DHT22;6200;48.144;11.424;2022-07-23T10:09:52;28.30;84.00
12276;DHT22;6200;48.144;11.424;2022-07-23T10:12:19;28.60;85.00
12276;DHT22;6200;48.144;11.424;2022-07-23T10:14:47;28.60;83.50
12276;DHT22;6200;48.144;11.424;2022-07-23T10:17:15;28.40;84.70
12276;DHT22;6200;48.144;11.424;2022-07-23T10:19:41;29.20;87.60
12276;DHT22;6200;48.144;11.424;2022-07-23T10:22:13;30.30;84.30
12276;DHT22;6200;48.144;11.424;2022-07-23T10:30:28;33.00;76.70
12276;DHT22;6200;48.144;11.424;2022-07-23T10:38:31;33.60;64.80
12276;DHT22;6200;48.144;11.424;2022-07-23T10:41:03;33.30;64.30
12276;DHT22;6200;48.144;11.424;2022-07-23T10:43:29;32.50;68.00
12276;DHT22;6200;48.144;11.424;2022-07-23T10:45:56;32.30;67.40
12276;DHT22;6200;48.144;11.424;2022-07-23T10:48:41;32.00;70.10
12276;DHT22;6200;48.144;11.424;2022-07-23T10:51:12;31.60;70.40
12276;DHT22;6200;48.144;11.424;2022-07-23T10:53:57;31.50;72.50
12276;DHT22;6200;48.144;11.424;2022-07-23T10:56:49;31.30;70.00
12276;DHT22;6200;48.144;11.424;2022-07-23T10:59:15;31.40;72.10
12276;DHT22;6200;48.144;11.424;2022-07-23T11:01:40;31.20;70.50
12276;DHT22;6200;48.144;11.424;2022-07-23T11:04:06;31.10;73.60
12276;DHT22;6200;48.144;11.424;2022-07-23T11:09:38;30.20;72.40
12276;DHT22;6200;48.144;11.424;2022-07-23T11:14:58;29.90;73.10
12276;DHT22;6200;48.144;11.424;2022-07-23T11:17:24;29.70;73.70
12276;DHT22;6200;48.144;11.424;2022-07-23T11:25:02;29.20;73.30
12276;DHT22;6200;48.144;11.424;2022-07-23T11:27:42;28.90;75.30
12276;DHT22;6200;48.144;11.424;2022-07-23T11:30:10;28.40;78.20
12276;DHT22;6200;48.144;11.424;2022-07-23T11:32:38;28.20;76.30
12276;DHT22;6200;48.144;11.424;2022-07-23T11:37:46;28.00;79.10
12276;DHT22;6200;48.144;11.424;2022-07-23T11:40:14;27.90;79.30
12276;DHT22;6200;48.144;11.424;2022-07-23T11:42:56;27.70;79.80
12276;DHT22;6200;48.144;11.424;2022-07-23T11:45:24;27.70;81.60
12276;DHT22;6200;48.144;11.424;2022-07-23T11:47:51;27.40;82.90
12276;DHT22;6200;48.144;11.424;2022-07-23T11:50:17;27.40;82.60
12276;DHT22;6200;48.144;11.424;2022-07-23T11:52:42;27.50;82.90
12276;DHT22;6200;48.144;11.424;2022-07-23T11:55:10;27.20;83.70
12276;DHT22;6200;48.144;11.424;2022-07-23T11:57:39;26.80;85.30
12276;DHT22;6200;48.144;11.424;2022-07-23T12:02:43;26.60;83.10
12276;DHT22;6200;48.144;11.424;2022-07-23T12:05:23;26.60;86.30
12276;DHT22;6200;48.144;11.424;2022-07-23T12:07:51;26.60;85.30
12276;DHT22;6200;48.144;11.424;2022-07-23T12:10:25;27.10;87.00
12276;DHT22;6200;48.144;11.424;2022-07-23T12:13:04;26.80;85.00
12276;DHT22;6200;48.144;11.424;2022-07-23T12:15:36;26.60;83.40
12276;DHT22;6200;48.144;11.424;2022-07-23T12:18:07;26.40;84.60
12276;DHT22;6200;48.144;11.424;2022-07-23T12:20:36;26.40;86.60
12276;DHT22;6200;48.144;11.424;2022-07-23T12:23:04;26.40;86.60
12276;DHT22;6200;48.144;11.424;2022-07-23T12:25:32;26.20;87.30
12276;DHT22;6200;48.144;11.424;2022-07-23T12:28:06;26.20;88.20
12276;DHT22;6200;48.144;11.424;2022-07-23T12:30:44;26.30;86.40
12276;DHT22;6200;48.144;11.424;2022-07-23T12:33:21;26.30;86.40
12276;DHT22;6200;48.144;11.424;2022-07-23T12:35:48;26.30;87.20
12276;DHT22;6200;48.144;11.424;2022-07-23T12:38:18;26.40;87.50
12276;DHT22;6200;48.144;11.424;2022-07-23T12:40:46;26.20;90.00
12276;DHT22;6200;48.144;11.424;2022-07-23T12:43:23;26.90;89.00
12276;DHT22;6200;48.144;11.424;2022-07-23T12:45:54;26.30;87.00
12276;DHT22;6200;48.144;11.424;2022-07-23T12:51:03;26.50;87.20
12276;DHT22;6200;48.144;11.424;2022-07-23T12:56:15;26.40;86.80
12276;DHT22;6200;48.144;11.424;2022-07-23T12:58:44;26.50;86.90
12276;DHT22;6200;48.144;11.424;2022-07-23T13:01:31;26.30;87.70
12276;DHT22;6200;48.144;11.424;2022-07-23T13:04:04;26.50;86.90
12276;DHT22;6200;48.144;11.424;2022-07-23T13:06:52;26.40;88.70
12276;DHT22;6200;48.144;11.424;2022-07-23T13:09:19;26.40;87.80
12276;DHT22;6200;48.144;11.424;2022-07-23T13:11:46;26.50;87.80
12276;DHT22;6200;48.144;11.424;2022-07-23T13:14:13;26.60;86.00
12276;DHT22;6200;48.144;11.424;2022-07-23T13:16:39;26.50;89.80
12276;DHT22;6200;48.144;11.424;2022-07-23T13:19:06;26.50;90.10
12276;DHT22;6200;48.144;11.424;2022-07-23T13:21:32;26.50;90.20
12276;DHT22;6200;48.144;11.424;2022-07-23T13:23:58;26.30;89.00
12276;DHT22;6200;48.144;11.424;2022-07-23T13:26:24;26.30;88.00
12276;DHT22;6200;48.144;11.424;2022-07-23T13:28:50;26.20;89.70
12276;DHT22;6200;48.144;11.424;2022-07-23T13:31:19;26.20;90.10
12276;DHT22;6200;48.144;11.424;2022-07-23T13:33:45;26.40;90.30
12276;DHT22;6200;48.144;11.424;2022-07-23T13:36:11;26.70;90.10
12276;DHT22;6200;48.144;11.424;2022-07-23T13:38:36;26.70;88.20
12276;DHT22;6200;48.144;11.424;2022-07-23T13:41:03;27.00;88.30
12276;DHT22;6200;48.144;11.424;2022-07-23T13:43:29;27.10;87.70
12276;DHT22;6200;48.144;11.424;2022-07-23T13:45:55;27.20;88.40
12276;DHT22;6200;48.144;11.424;2022-07-23T13:48:21;27.00;87.00
12276;DHT22;6200;48.144;11.424;2022-07-23T13:50:48;26.90;87.20
12276;DHT22;6200;48.144;11.424;2022-07-23T13:53:17;26.70;86.60
12276;DHT22;6200;48.144;11.424;2022-07-23T13:55:43;26.60;87.60
12276;DHT22;6200;48.144;11.424;2022-07-23T13:58:09;26.50;88.20
12276;DHT22;6200;48.144;11.424;2022-07-23T14:00:37;26.40;89.30
12276;DHT22;6200;48.144;11.424;2022-07-23T14:03:03;26.30;89.20
12276;DHT22;6200;48.144;11.424;2022-07-23T14:05:29;26.50;88.00
12276;DHT22;6200;48.144;11.424;2022-07-23T14:07:55;26.20;90.00
12276;DHT22;6200;48.144;11.424;2022-07-23T14:10:22;26.00;89.00
12276;DHT22;6200;48.144;11.424;2022-07-23T14:12:49;26.00;89.80
12276;DHT22;6200;48.144;11.424;2022-07-23T14:15:15;25.90;90.10
12276;DHT22;6200;48.144;11.424;2022-07-23T14:17:43;25.90;91.40
12276;DHT22;6200;48.144;11.424;2022-07-23T14:20:11;25.90;90.10
12276;DHT22;6200;48.144;11.424;2022-07-23T14:22:37;25.90;90.50
12276;DHT22;6200;48.144;11.424;2022-07-23T14:25:05;26.00;90.80
12276;DHT22;6200;48.144;11.424;2022-07-23T14:27:31;26.20;91.10
12276;DHT22;6200;48.144;11.424;2022-07-23T14:29:57;26.60;90.90
12276;DHT22;6200;48.144;11.424;2022-07-23T14:32:23;26.60;89.80
12276;DHT22;6200;48.144;11.424;2022-07-23T14:34:49;26.80;88.30
12276;DHT22;6200;48.144;11.424;2022-07-23T14:37:15;26.80;86.80
12276;DHT22;6200;48.144;11.424;2022-07-23T14:39:42;26.90;89.50
12276;DHT22;6200;48.144;11.424;2022-07-23T14:42:08;26.70;90.20
12276;DHT22;6200;48.144;11.424;2022-07-23T14:44:34;26.70;88.50
12276;DHT22;6200;48.144;11.424;2022-07-23T14:47:00;27.00;88.80
12276;DHT22;6200;48.144;11.424;2022-07-23T14:49:26;26.90;86.70
12276;DHT22;6200;48.144;11.424;2022-07-23T14:51:52;27.00;88.90
12276;DHT22;6200;48.144;11.424;2022-07-23T14:54:18;27.00;89.20
12276;DHT22;6200;48.144;11.424;2022-07-23T14:56:45;26.80;89.80
12276;DHT22;6200;48.144;11.424;2022-07-23T14:59:11;26.90;88.50
12276;DHT22;6200;48.144;11.424;2022-07-23T15:01:36;26.90;88.70
12276;DHT22;6200;48.144;11.424;2022-07-23T15:04:03;26.80;88.10
12276;DHT22;6200;48.144;11.424;2022-07-23T15:06:29;26.60;89.40
12276;DHT22;6200;48.144;11.424;2022-07-23T15:08:55;26.60;89.40
12276;DHT22;6200;48.144;11.424;2022-07-23T15:11:20;26.80;90.00
12276;DHT22;6200;48.144;11.424;2022-07-23T15:13:46;26.70;90.00
12276;DHT22;6200;48.144;11.424;2022-07-23T15:16:11;26.90;88.40
12276;DHT22;6200;48.144;11.424;2022-07-23T15:18:37;27.00;87.00
12276;DHT22;6200;48.144;11.424;2022-07-23T15:21:03;26.90;88.40
12276;DHT22;6200;48.144;11.424;2022-07-23T15:23:29;26.80;87.50
12276;DHT22;6200;48.144;11.424;2022-07-23T15:25:56;27.40;88.60
12276;DHT22;6200;48.144;11.424;2022-07-23T15:28:22;27.40;87.00
12276;DHT22;6200;48.144;11.424;2022-07-23T15:30:49;27.00;90.00
12276;DHT22;6200;48.144;11.424;2022-07-23T15:33:14;27.10;88.20
12276;DHT22;6200;48.144;11.424;2022-07-23T15:35:40;27.40;88.80
12276;DHT22;6200;48.144;11.424;2022-07-23T15:38:06;27.20;87.30
12276;DHT22;6200;48.144;11.424;2022-07-23T15:40:31;27.50;90.30
12276;DHT22;6200;48.144;11.424;2022-07-23T15:42:57;27.40;87.20
12276;DHT22;6200;48.144;11.424;2022-07-23T15:45:22;27.50;85.70
12276;DHT22;6200;48.144;11.424;2022-07-23T15:47:48;27.20;89.20
12276;DHT22;6200;48.144;11.424;2022-07-23T15:50:14;27.20;87.90
12276;DHT22;6200;48.144;11.424;2022-07-23T15:52:40;27.20;87.50
12276;DHT22;6200;48.144;11.424;2022-07-23T15:55:07;27.20;89.60
12276;DHT22;6200;48.144;11.424;2022-07-23T15:57:35;27.20;88.50
12276;DHT22;6200;48.144;11.424;2022-07-23T16:00:01;27.10;88.50
12276;DHT22;6200;48.144;11.424;2022-07-23T16:02:27;27.00;88.50